Камери на живо
METAR for:LBGO (Gorna Orechovista Ar, --, BU)
Text:LBGO 161730Z AUTO 27004KT 9999 NCD 23/15 Q1011
Temperature: 23.0°C ( 73°F)
Dewpoint: 15.0°C ( 59°F) [RH = 61%]
Pressure (altimeter):29.85 inches Hg (1011.0 mb)
Winds:from the W (270 degrees) at 5 MPH (4 knots; 2.1 m/s)
Visibility:6 or more sm (10+ km)
Ceiling:at least 12,000 feet AGL
Clouds:sky clear below 12,000 feet AGL

TAF for:LBGO (Gorna Orechovista Ar, --, BU) issued at 1700 UTC 16 Jul 2020
Text:TAF LBGO 161700Z 1618/1718 VRB04KT CAVOK
Forecast period:1800 UTC 16 July 2020 to 1800 UTC 17 July 2020
Forecast type:FROM: standard forecast or significant change
Winds:variable direction winds at 5 MPH (4 knots; 2.1 m/s)
Visibility:6 or more sm (10+ km)
Clouds:missing
Weather:NSW (no significant weather)